^^
Paulen-Weather Station Historical Data
Daily Summary for April 11, 2022 Units:  Metric    English   Both
Daily Weekly Monthly Yearly Custom
  High: Low: Average:
Temperature: 11 °C 2 °C 6.2 °C
Dew Point: 2 °C -4 °C -1.6 °C
Humidity: 72% 35% 58%
Wind Speed: 24km/h 1km/h 9km/h
Wind Gust: 23km/h - -
Wind- - WNW
Pressure: 1017.71 hPa 1011.62 hPa -
Precipitation: 0 mm    
Historical Graphs
 
 
Tabular Data for April 11, 2022
Time Temperature Dew Point Pressure Wind Wind Speed Wind Gust Humidity Rainfall Rate (Hourly) solar
00:04 3 °C -2 °C 1011.62 hPa WNW 11 km/h 9 km/h 68% 0 mm 0 W/m2
00:09 4 °C -2 °C 1011.68 hPa WNW 10 km/h 9 km/h 68% 0 mm 0 W/m2
00:14 4 °C -2 °C 1011.68 hPa WNW 12 km/h 7 km/h 68% 0 mm 0 W/m2
00:19 3 °C -2 °C 1011.68 hPa W 4 km/h 2 km/h 68% 0 mm 0 W/m2
00:24 3 °C -2 °C 1011.79 hPa W 5 km/h 3 km/h 68% 0 mm 0 W/m2
00:29 3 °C -2 °C 1011.82 hPa W 7 km/h 5 km/h 68% 0 mm 0 W/m2
00:34 3 °C -2 °C 1011.85 hPa W 8 km/h 6 km/h 69% 0 mm 0 W/m2
00:39 3 °C -2 °C 1011.95 hPa W 4 km/h 3 km/h 69% 0 mm 0 W/m2
00:44 3 °C -2 °C 1011.95 hPa WSW 4 km/h 3 km/h 69% 0 mm 0 W/m2
00:49 3 °C -2 °C 1012.06 hPa WSW 2 km/h 2 km/h 70% 0 mm 0 W/m2
00:54 3 °C -2 °C 1012.09 hPa W 5 km/h 3 km/h 70% 0 mm 0 W/m2
00:59 3 °C -2 °C 1012.16 hPa W 5 km/h 3 km/h 70% 0 mm 0 W/m2
01:04 3 °C -2 °C 1012.16 hPa W 6 km/h 3 km/h 71% 0 mm 0 W/m2
01:09 3 °C -2 °C 1012.23 hPa W 9 km/h 8 km/h 71% 0 mm 0 W/m2
01:14 3 °C -2 °C 1012.29 hPa W 8 km/h 6 km/h 72% 0 mm 0 W/m2
01:19 3 °C -2 °C 1012.29 hPa WNW 5 km/h 4 km/h 71% 0 mm 0 W/m2
01:24 3 °C -2 °C 1012.33 hPa WNW 6 km/h 4 km/h 71% 0 mm 0 W/m2
01:29 3 °C -2 °C 1012.39 hPa W 4 km/h 2 km/h 71% 0 mm 0 W/m2
01:32 3 °C -2 °C 1012.39 hPa W 9 km/h 3 km/h 72% 0 mm 0 W/m2
01:39 3 °C -2 °C 1012.46 hPa WNW 5 km/h 5 km/h 71% 0 mm 0 W/m2
01:44 3 °C -2 °C 1012.46 hPa WNW 7 km/h 7 km/h 71% 0 mm 0 W/m2
01:49 3 °C -2 °C 1012.43 hPa WNW 5 km/h 4 km/h 71% 0 mm 0 W/m2
01:54 3 °C -2 °C 1012.5 hPa WNW 5 km/h 2 km/h 71% 0 mm 0 W/m2
01:59 3 °C -2 °C 1012.46 hPa W 4 km/h 2 km/h 71% 0 mm 0 W/m2
02:04 3 °C -2 °C 1012.39 hPa WNW 4 km/h 2 km/h 70% 0 mm 0 W/m2
02:09 3 °C -2 °C 1012.5 hPa WNW 5 km/h 3 km/h 70% 0 mm 0 W/m2
02:14 3 °C -2 °C 1012.56 hPa NW 4 km/h 4 km/h 69% 0 mm 0 W/m2
02:19 3 °C -2 °C 1012.6 hPa NW 7 km/h 6 km/h 68% 0 mm 0 W/m2
02:24 3 °C -2 °C 1012.63 hPa NW 8 km/h 7 km/h 67% 0 mm 0 W/m2
02:29 3 °C -2 °C 1012.7 hPa NW 5 km/h 3 km/h 67% 0 mm 0 W/m2
02:34 3 °C -2 °C 1012.73 hPa WNW 9 km/h 7 km/h 67% 0 mm 0 W/m2
02:39 3 °C -2 °C 1012.73 hPa WNW 5 km/h 5 km/h 67% 0 mm 0 W/m2
02:44 3 °C -2 °C 1012.87 hPa W 6 km/h 6 km/h 67% 0 mm 0 W/m2
02:49 3 °C -2 °C 1012.94 hPa WNW 7 km/h 5 km/h 67% 0 mm 0 W/m2
02:54 3 °C -2 °C 1012.94 hPa WNW 8 km/h 6 km/h 68% 0 mm 0 W/m2
02:59 3 °C -2 °C 1013 hPa W 6 km/h 3 km/h 68% 0 mm 0 W/m2
03:04 3 °C -2 °C 1013.04 hPa WSW 5 km/h 6 km/h 68% 0 mm 0 W/m2
03:09 3 °C -2 °C 1013.04 hPa W 5 km/h 2 km/h 69% 0 mm 0 W/m2
03:14 3 °C -2 °C 1013.11 hPa W 4 km/h 3 km/h 70% 0 mm 0 W/m2
03:19 3 °C -2 °C 1013.11 hPa W 7 km/h 5 km/h 70% 0 mm 0 W/m2
03:24 3 °C -2 °C 1013.11 hPa W 8 km/h 5 km/h 70% 0 mm 0 W/m2
03:29 3 °C -2 °C 1013.24 hPa WNW 6 km/h 3 km/h 69% 0 mm 0 W/m2
03:34 3 °C -2 °C 1013.24 hPa W 6 km/h 5 km/h 69% 0 mm 0 W/m2
03:39 3 °C -2 °C 1013.24 hPa W 6 km/h 6 km/h 69% 0 mm 0 W/m2
03:44 3 °C -2 °C 1013.38 hPa W 6 km/h 4 km/h 69% 0 mm 0 W/m2
03:49 3 °C -2 °C 1013.44 hPa W 5 km/h 3 km/h 70% 0 mm 0 W/m2
03:54 3 °C -2 °C 1013.48 hPa W 5 km/h 3 km/h 70% 0 mm 0 W/m2
03:59 3 °C -2 °C 1013.44 hPa W 5 km/h 2 km/h 71% 0 mm 0 W/m2
04:04 2 °C -2 °C 1013.51 hPa WSW 4 km/h 4 km/h 72% 0 mm 0 W/m2
04:09 2 °C -2 °C 1013.48 hPa W 6 km/h 4 km/h 72% 0 mm 0 W/m2
04:14 2 °C -2 °C 1013.58 hPa W 5 km/h 3 km/h 72% 0 mm 0 W/m2
04:19 2 °C -2 °C 1013.58 hPa WNW 2 km/h   72% 0 mm 0 W/m2
04:24 2 °C -2 °C 1013.75 hPa W 5 km/h 3 km/h 72% 0 mm 0 W/m2
04:29 2 °C -2 °C 1013.78 hPa WSW 3 km/h 3 km/h 72% 0 mm 0 W/m2
04:34 2 °C -2 °C 1013.78 hPa W 7 km/h 3 km/h 72% 0 mm 0 W/m2
04:39 2 °C -2 °C 1013.78 hPa W 7 km/h 5 km/h 71% 0 mm 0 W/m2
04:44 2 °C -2 °C 1013.78 hPa WSW 4 km/h 3 km/h 71% 0 mm 0 W/m2
04:49 2 °C -2 °C 1013.82 hPa WNW 7 km/h 4 km/h 71% 0 mm 0 W/m2
04:54 2 °C -3 °C 1013.85 hPa W 5 km/h 3 km/h 70% 0 mm 0 W/m2
04:59 2 °C -3 °C 1013.85 hPa W 3 km/h 3 km/h 70% 0 mm 0 W/m2
05:04 2 °C -3 °C 1013.85 hPa WSW 7 km/h 4 km/h 70% 0 mm 0 W/m2
05:09 2 °C -3 °C 1013.99 hPa W 5 km/h 2 km/h 70% 0 mm 0 W/m2
05:14 2 °C -2 °C 1013.99 hPa W 3 km/h 2 km/h 70% 0 mm 0 W/m2
05:19 2 °C -2 °C 1013.99 hPa W 5 km/h 2 km/h 71% 0 mm 0 W/m2
05:24 2 °C -2 °C 1014.02 hPa WNW 5 km/h 3 km/h 71% 0 mm 0 W/m2
05:29 2 °C -2 °C 1014.02 hPa WNW 9 km/h 5 km/h 70% 0 mm 0 W/m2
05:34 2 °C -2 °C 1014.16 hPa NNW 8 km/h 9 km/h 70% 0 mm 0 W/m2
05:39 3 °C -2 °C 1014.22 hPa NW 8 km/h 5 km/h 69% 0 mm 0 W/m2
05:44 3 °C -2 °C 1014.33 hPa NW 4 km/h 3 km/h 69% 0 mm 0 W/m2
05:49 3 °C -2 °C 1014.33 hPa NW 1 km/h   69% 0 mm 0 W/m2
05:54 3 °C -2 °C 1014.36 hPa WNW 4 km/h 3 km/h 70% 0 mm 0 W/m2
05:59 3 °C -2 °C 1014.36 hPa W 4 km/h 3 km/h 70% 0 mm 0 W/m2
06:04 3 °C -2 °C 1014.43 hPa WNW 6 km/h 4 km/h 70% 0 mm 0 W/m2
06:09 2 °C -2 °C 1014.43 hPa W 6 km/h 4 km/h 70% 0 mm 0 W/m2
06:14 3 °C -2 °C 1014.43 hPa W 6 km/h 5 km/h 70% 0 mm 0 W/m2
06:19 3 °C -2 °C 1014.6 hPa WNW 4 km/h 5 km/h 70% 0 mm 5 W/m2
06:24 3 °C -2 °C 1014.77 hPa WNW 3 km/h 3 km/h 70% 0 mm 5 W/m2
06:29 3 °C -2 °C 1014.83 hPa WNW 4 km/h 3 km/h 69% 0 mm 7 W/m2
06:34 3 °C -2 °C 1014.9 hPa W 4 km/h 2 km/h 69% 0 mm 12 W/m2
06:39 3 °C -2 °C 1014.97 hPa WNW 10 km/h 9 km/h 70% 0 mm 18 W/m2
06:44 3 °C -2 °C 1015 hPa WNW 11 km/h 9 km/h 70% 0 mm 25 W/m2
06:49 3 °C -2 °C 1015.07 hPa WNW 14 km/h 11 km/h 69% 0 mm 32 W/m2
06:54 3 °C -2 °C 1015.07 hPa WNW 17 km/h 13 km/h 69% 0 mm 33 W/m2
06:59 3 °C -2 °C 1015.1 hPa WNW 16 km/h 11 km/h 69% 0 mm 42 W/m2
07:04 3 °C -2 °C 1015.17 hPa WNW 15 km/h 10 km/h 70% 0 mm 58 W/m2
07:09 3 °C -2 °C 1015.27 hPa WNW 11 km/h 8 km/h 70% 0 mm 67 W/m2
07:14 3 °C -2 °C 1015.34 hPa WNW 12 km/h 9 km/h 70% 0 mm 77 W/m2
07:19 3 °C -2 °C 1015.41 hPa WNW 7 km/h 7 km/h 70% 0 mm 84 W/m2
07:24 3 °C -2 °C 1015.48 hPa WNW 8 km/h 5 km/h 70% 0 mm 97 W/m2
07:29 3 °C -2 °C 1015.54 hPa W 6 km/h 3 km/h 71% 0 mm 107 W/m2
07:34 3 °C -2 °C 1015.65 hPa W 5 km/h 2 km/h 71% 0 mm 116 W/m2
07:39 3 °C -1 °C 1015.68 hPa W 6 km/h 3 km/h 71% 0 mm 123 W/m2
07:44 3 °C -1 °C 1015.65 hPa W 3 km/h 2 km/h 71% 0 mm 132 W/m2
07:49 4 °C -1 °C 1015.68 hPa W 3 km/h 3 km/h 71% 0 mm 142 W/m2
07:54 4 °C -1 °C 1015.75 hPa W 3 km/h 2 km/h 71% 0 mm 151 W/m2
07:59 4 °C -1 °C 1015.82 hPa W 3 km/h 1 km/h 70% 0 mm 165 W/m2
08:04 4 °C -1 °C 1015.88 hPa W 3 km/h 2 km/h 70% 0 mm 178 W/m2
08:09 4 °C -1 °C 1015.88 hPa WSW 6 km/h 6 km/h 70% 0 mm 185 W/m2
08:14 4 °C -1 °C 1015.88 hPa WSW 6 km/h 5 km/h 70% 0 mm 199 W/m2
08:19 4 °C -1 °C 1015.92 hPa WSW 7 km/h 6 km/h 71% 0 mm 211 W/m2
08:24 4 °C -1 °C 1015.95 hPa WSW 6 km/h 6 km/h 71% 0 mm 225 W/m2
08:29 4 °C -1 °C 1015.95 hPa WSW 7 km/h 8 km/h 70% 0 mm 243 W/m2
08:34 4 °C -1 °C 1015.98 hPa W 9 km/h 8 km/h 70% 0 mm 246 W/m2
08:39 4 °C -1 °C 1016.05 hPa WNW 9 km/h 9 km/h 70% 0 mm 257 W/m2
08:44 4 °C -1 °C 1016.09 hPa W 6 km/h 4 km/h 70% 0 mm 272 W/m2
08:49 5 °C 0 °C 1016.09 hPa W 6 km/h 4 km/h 69% 0 mm 281 W/m2
08:54 5 °C 0 °C 1016.09 hPa W 10 km/h 8 km/h 68% 0 mm 292 W/m2
08:59 5 °C 0 °C 1016.09 hPa WNW 10 km/h 6 km/h 68% 0 mm 306 W/m2
09:04 5 °C 0 °C 1016.12 hPa WNW 7 km/h 5 km/h 67% 0 mm 320 W/m2
09:09 5 °C 0 °C 1016.15 hPa W 7 km/h 5 km/h 66% 0 mm 330 W/m2
09:14 5 °C 0 °C 1016.15 hPa W 6 km/h 4 km/h 66% 0 mm 345 W/m2
09:19 6 °C 0 °C 1016.12 hPa W 5 km/h 3 km/h 65% 0 mm 355 W/m2
09:24 6 °C 0 °C 1016.19 hPa W 5 km/h 5 km/h 63% 0 mm 367 W/m2
09:29 6 °C -1 °C 1016.26 hPa WNW 6 km/h 5 km/h 60% 0 mm 381 W/m2
09:34 6 °C -1 °C 1016.29 hPa NW 9 km/h 8 km/h 58% 0 mm 394 W/m2
09:39 6 °C -2 °C 1016.29 hPa NW 13 km/h 10 km/h 57% 0 mm 406 W/m2
09:44 6 °C -1 °C 1016.26 hPa NNW 6 km/h 4 km/h 58% 0 mm 420 W/m2
09:49 6 °C -1 °C 1016.29 hPa NW 11 km/h 14 km/h 57% 0 mm 432 W/m2
09:54 6 °C -2 °C 1016.29 hPa NW 18 km/h 15 km/h 55% 0 mm 434 W/m2
09:59 6 °C -2 °C 1016.19 hPa NW 18 km/h 13 km/h 54% 0 mm 438 W/m2
10:04 6 °C -2 °C 1016.19 hPa NW 17 km/h 15 km/h 54% 0 mm 448 W/m2
10:09 6 °C -2 °C 1016.22 hPa NW 15 km/h 15 km/h 54% 0 mm 455 W/m2
10:14 6 °C -2 °C 1016.26 hPa NNW 16 km/h 13 km/h 55% 0 mm 464 W/m2
10:19 7 °C -2 °C 1016.19 hPa NNW 17 km/h 16 km/h 54% 0 mm 476 W/m2
10:24 7 °C -3 °C 1016.15 hPa NW 24 km/h 23 km/h 51% 0 mm 485 W/m2
10:29 7 °C -3 °C 1016.19 hPa NNW 21 km/h 22 km/h 51% 0 mm 490 W/m2
10:34 7 °C -3 °C 1016.19 hPa NNW 19 km/h 18 km/h 51% 0 mm 503 W/m2
10:39 7 °C -3 °C 1016.19 hPa NNW 18 km/h 16 km/h 51% 0 mm 517 W/m2
10:44 7 °C -3 °C 1016.19 hPa NNW 20 km/h 21 km/h 51% 0 mm 522 W/m2
10:49 7 °C -3 °C 1016.22 hPa NNW 24 km/h 21 km/h 50% 0 mm 520 W/m2
10:54 7 °C -3 °C 1016.22 hPa NNW 21 km/h 19 km/h 50% 0 mm 533 W/m2
10:59 7 °C -3 °C 1016.29 hPa NNW 21 km/h 19 km/h 51% 0 mm 540 W/m2
11:04 7 °C -3 °C 1016.32 hPa NNW 21 km/h 20 km/h 50% 0 mm 548 W/m2
11:09 7 °C -2 °C 1016.32 hPa NNW 19 km/h 20 km/h 50% 0 mm 564 W/m2
11:14 7 °C -2 °C 1016.29 hPa NNW 18 km/h 19 km/h 50% 0 mm 564 W/m2
11:19 7 °C -3 °C 1016.32 hPa NNW 13 km/h 13 km/h 49% 0 mm 566 W/m2
11:24 7 °C -3 °C 1016.26 hPa NNW 13 km/h 11 km/h 47% 0 mm 570 W/m2
11:29 7 °C -3 °C 1016.26 hPa NNW 14 km/h 12 km/h 46% 0 mm 578 W/m2
11:34 8 °C -3 °C 1016.22 hPa NNW 14 km/h 12 km/h 46% 0 mm 585 W/m2
11:39 8 °C -3 °C 1016.26 hPa NW 7 km/h 6 km/h 46% 0 mm 594 W/m2
11:44 8 °C -3 °C 1016.26 hPa NNW 7 km/h 9 km/h 47% 0 mm 594 W/m2
11:49 8 °C -3 °C 1016.19 hPa NW 13 km/h 13 km/h 45% 0 mm 605 W/m2
11:54 8 °C -3 °C 1016.12 hPa NW 13 km/h 14 km/h 45% 0 mm 610 W/m2
11:59 8 °C -3 °C 1016.15 hPa WNW 14 km/h 12 km/h 44% 0 mm 626 W/m2
12:04 8 °C -3 °C 1016.19 hPa NW 12 km/h 10 km/h 44% 0 mm 626 W/m2
12:09 9 °C -3 °C 1016.19 hPa WNW 9 km/h 6 km/h 43% 0 mm 596 W/m2
12:14 9 °C -3 °C 1016.19 hPa NW 10 km/h 10 km/h 42% 0 mm 612 W/m2
12:19 9 °C -3 °C 1016.09 hPa NW 15 km/h 16 km/h 42% 0 mm 638 W/m2
12:24 8 °C -4 °C 1016.05 hPa NNW 12 km/h 16 km/h 42% 0 mm 645 W/m2
12:29 8 °C -3 °C 1016.05 hPa NNW 12 km/h 13 km/h 43% 0 mm 645 W/m2
12:34 8 °C -3 °C 1015.98 hPa NNW 19 km/h 16 km/h 43% 0 mm 652 W/m2
12:39 8 °C -3 °C 1015.98 hPa NNW 14 km/h 15 km/h 44% 0 mm 652 W/m2
12:44 8 °C -3 °C 1015.88 hPa NNW 13 km/h 11 km/h 44% 0 mm 656 W/m2
12:49 9 °C -3 °C 1015.88 hPa NNW 14 km/h 14 km/h 43% 0 mm 657 W/m2
12:54 9 °C -4 °C 1015.78 hPa N 7 km/h 10 km/h 41% 0 mm 654 W/m2
12:59 9 °C -4 °C 1015.85 hPa N 5 km/h 4 km/h 41% 0 mm 652 W/m2
13:04 9 °C -4 °C 1015.88 hPa N 10 km/h 9 km/h 40% 0 mm 652 W/m2
13:09 9 °C -3 °C 1015.85 hPa NNW 11 km/h 10 km/h 41% 0 mm 656 W/m2
13:14 9 °C -3 °C 1015.82 hPa NW 7 km/h 6 km/h 42% 0 mm 659 W/m2
13:19 10 °C -4 °C 1015.85 hPa NW 12 km/h 12 km/h 39% 0 mm 661 W/m2
13:24 9 °C -3 °C 1015.92 hPa N 9 km/h 11 km/h 41% 0 mm 661 W/m2
13:29 9 °C -4 °C 1015.88 hPa N 4 km/h 4 km/h 39% 0 mm 647 W/m2
13:34 10 °C -3 °C 1015.85 hPa NNE 7 km/h 8 km/h 41% 0 mm 649 W/m2
13:39 9 °C -3 °C 1015.75 hPa N 9 km/h 8 km/h 42% 0 mm 645 W/m2
13:44 9 °C -4 °C 1015.82 hPa NNW 7 km/h 7 km/h 38% 0 mm 622 W/m2
13:49 9 °C -4 °C 1015.82 hPa N 5 km/h 6 km/h 38% 0 mm 675 W/m2
13:54 10 °C -4 °C 1015.82 hPa NW 9 km/h 7 km/h 38% 0 mm 680 W/m2
13:59 10 °C -3 °C 1015.71 hPa NNW 11 km/h 12 km/h 39% 0 mm 666 W/m2
14:04 10 °C -4 °C 1015.68 hPa NNW 8 km/h 8 km/h 38% 0 mm 633 W/m2
14:09 10 °C -4 °C 1015.68 hPa NNW 9 km/h 9 km/h 39% 0 mm 635 W/m2
14:14 9 °C -3 °C 1015.68 hPa ENE 7 km/h 9 km/h 41% 0 mm 640 W/m2
14:19 9 °C -3 °C 1015.65 hPa SE 8 km/h 8 km/h 42% 0 mm 642 W/m2
14:24 9 °C -2 °C 1015.68 hPa SSE 9 km/h 8 km/h 43% 0 mm 635 W/m2
14:29 9 °C -1 °C 1015.61 hPa SSE 15 km/h 13 km/h 50% 0 mm 629 W/m2
14:34 9 °C -2 °C 1015.61 hPa WNW 5 km/h 10 km/h 44% 0 mm 629 W/m2
14:39 9 °C 0 °C 1015.58 hPa N 18 km/h 15 km/h 52% 0 mm 608 W/m2
14:44 9 °C 0 °C 1015.61 hPa NNW 17 km/h 19 km/h 52% 0 mm 605 W/m2
14:49 9 °C 0 °C 1015.51 hPa NNW 19 km/h 18 km/h 53% 0 mm 613 W/m2
14:54 9 °C 1 °C 1015.51 hPa NNW 18 km/h 14 km/h 53% 0 mm 613 W/m2
14:59 9 °C 0 °C 1015.48 hPa N 15 km/h 13 km/h 53% 0 mm 608 W/m2
15:04 10 °C 1 °C 1015.37 hPa N 20 km/h 17 km/h 53% 0 mm 603 W/m2
15:09 9 °C 0 °C 1015.44 hPa N 18 km/h 16 km/h 53% 0 mm 585 W/m2
15:14 9 °C 0 °C 1015.41 hPa NNW 18 km/h 16 km/h 53% 0 mm 585 W/m2
15:19 10 °C 0 °C 1015.34 hPa NNW 15 km/h 12 km/h 52% 0 mm 587 W/m2
15:24 10 °C 1 °C 1015.34 hPa NNE 15 km/h 12 km/h 53% 0 mm 577 W/m2
15:29 10 °C 0 °C 1015.27 hPa NNW 16 km/h 13 km/h 50% 0 mm 575 W/m2
15:34 10 °C 0 °C 1015.31 hPa NW 15 km/h 15 km/h 48% 0 mm 573 W/m2
15:39 10 °C -1 °C 1015.34 hPa NW 18 km/h 15 km/h 46% 0 mm 571 W/m2
15:44 10 °C 0 °C 1015.27 hPa NNW 16 km/h 14 km/h 48% 0 mm 559 W/m2
15:49 10 °C 0 °C 1015.21 hPa N 14 km/h 12 km/h 48% 0 mm 559 W/m2
15:54 10 °C -1 °C 1015.24 hPa SW 10 km/h 11 km/h 45% 0 mm 552 W/m2
15:59 10 °C -3 °C 1015.17 hPa NW 17 km/h 14 km/h 39% 0 mm 526 W/m2
16:04 10 °C -4 °C 1015.17 hPa NNW 12 km/h 11 km/h 37% 0 mm 520 W/m2
16:09 10 °C -4 °C 1015.14 hPa NW 9 km/h 15 km/h 37% 0 mm 515 W/m2
16:14 10 °C -3 °C 1015.17 hPa NW 16 km/h 15 km/h 37% 0 mm 499 W/m2
16:19 10 °C -4 °C 1015.14 hPa NW 7 km/h 6 km/h 37% 0 mm 499 W/m2
16:24 11 °C -4 °C 1015.1 hPa WNW 5 km/h 4 km/h 36% 0 mm 499 W/m2
16:29 11 °C -3 °C 1015.1 hPa NW 9 km/h 11 km/h 36% 0 mm 494 W/m2
16:34 11 °C -3 °C 1015.1 hPa NW 10 km/h 10 km/h 36% 0 mm 487 W/m2
16:39 11 °C -4 °C 1015.07 hPa WNW 10 km/h 8 km/h 35% 0 mm 469 W/m2
16:44 11 °C -3 °C 1015.07 hPa NW 10 km/h 12 km/h 37% 0 mm 459 W/m2
16:49 11 °C -3 °C 1015.07 hPa NW 10 km/h 10 km/h 39% 0 mm 446 W/m2
16:54 11 °C -3 °C 1015.07 hPa NNW 11 km/h 10 km/h 38% 0 mm 438 W/m2
16:59 11 °C -3 °C 1015.1 hPa NNW 6 km/h 7 km/h 37% 0 mm 418 W/m2
17:04 11 °C -2 °C 1015.1 hPa NW 10 km/h 7 km/h 41% 0 mm 418 W/m2
17:09 11 °C -1 °C 1015.14 hPa WNW 12 km/h 11 km/h 44% 0 mm 401 W/m2
17:14 11 °C 0 °C 1015.1 hPa NNW 17 km/h 16 km/h 47% 0 mm 392 W/m2
17:19 10 °C 1 °C 1015.17 hPa NW 15 km/h 11 km/h 51% 0 mm 383 W/m2
17:24 10 °C 1 °C 1015.17 hPa NNW 17 km/h 14 km/h 53% 0 mm 374 W/m2
17:29 10 °C 1 °C 1015.17 hPa NNW 20 km/h 17 km/h 53% 0 mm 367 W/m2
17:34 10 °C 1 °C 1015.21 hPa NNW 18 km/h 17 km/h 54% 0 mm 360 W/m2
17:39 10 °C 1 °C 1015.24 hPa NNW 15 km/h 13 km/h 56% 0 mm 353 W/m2
17:44 10 °C 1 °C 1015.27 hPa NNW 15 km/h 13 km/h 55% 0 mm 343 W/m2
17:49 10 °C 1 °C 1015.24 hPa NW 17 km/h 16 km/h 56% 0 mm 334 W/m2
17:54 9 °C 2 °C 1015.24 hPa NNW 18 km/h 16 km/h 58% 0 mm 329 W/m2
17:59 9 °C 2 °C 1015.24 hPa N 21 km/h 15 km/h 59% 0 mm 318 W/m2
18:04 9 °C 2 °C 1015.21 hPa NNW 15 km/h 14 km/h 60% 0 mm 309 W/m2
18:09 9 °C 2 °C 1015.24 hPa N 18 km/h 15 km/h 61% 0 mm 290 W/m2
18:14 9 °C 2 °C 1015.24 hPa NW 14 km/h 9 km/h 60% 0 mm 195 W/m2
18:19 9 °C 1 °C 1015.27 hPa NNW 12 km/h 10 km/h 59% 0 mm 197 W/m2
18:24 9 °C 1 °C 1015.27 hPa NW 15 km/h 12 km/h 57% 0 mm 225 W/m2
18:29 9 °C 2 °C 1015.31 hPa NNW 17 km/h 13 km/h 59% 0 mm 209 W/m2
18:34 9 °C 2 °C 1015.34 hPa NNW 16 km/h 11 km/h 62% 0 mm 211 W/m2
18:39 9 °C 2 °C 1015.34 hPa NW 15 km/h 11 km/h 63% 0 mm 202 W/m2
18:44 9 °C 2 °C 1015.34 hPa WNW 11 km/h 9 km/h 62% 0 mm 149 W/m2
18:49 9 °C 2 °C 1015.44 hPa NW 8 km/h 6 km/h 62% 0 mm 137 W/m2
18:54 9 °C 2 °C 1015.51 hPa NW 7 km/h 6 km/h 60% 0 mm 151 W/m2
18:59 9 °C 1 °C 1015.48 hPa WNW 7 km/h 5 km/h 59% 0 mm 156 W/m2
19:04 9 °C 1 °C 1015.48 hPa W 6 km/h 7 km/h 58% 0 mm 153 W/m2
19:09 9 °C 1 °C 1015.58 hPa W 7 km/h 7 km/h 59% 0 mm 100 W/m2
19:14 9 °C 2 °C 1015.68 hPa WSW 6 km/h 6 km/h 60% 0 mm 81 W/m2
19:19 9 °C 2 °C 1015.68 hPa W 5 km/h 3 km/h 61% 0 mm 76 W/m2
19:24 9 °C 1 °C 1015.65 hPa WSW 4 km/h 2 km/h 59% 0 mm 76 W/m2
19:29 9 °C 1 °C 1015.82 hPa WSW 3 km/h 1 km/h 57% 0 mm 72 W/m2
19:34 9 °C 1 °C 1015.82 hPa WSW 4 km/h 2 km/h 55% 0 mm 58 W/m2
19:39 9 °C 1 °C 1015.82 hPa WNW 5 km/h 8 km/h 55% 0 mm 76 W/m2
19:44 9 °C 2 °C 1015.88 hPa WSW 6 km/h 6 km/h 59% 0 mm 86 W/m2
19:49 9 °C 1 °C 1015.95 hPa WSW 5 km/h 3 km/h 59% 0 mm 67 W/m2
19:54 9 °C 1 °C 1015.98 hPa W 7 km/h 6 km/h 59% 0 mm 40 W/m2
20:04 8 °C 1 °C 1016.05 hPa W 4 km/h 3 km/h 60% 0 mm 30 W/m2
20:09 8 °C 1 °C 1016.09 hPa W 3 km/h 1 km/h 58% 0 mm 26 W/m2
20:14 8 °C 0 °C 1016.19 hPa W 3 km/h 4 km/h 57% 0 mm 21 W/m2
20:19 8 °C -1 °C 1016.22 hPa NW 7 km/h 6 km/h 51% 0 mm 18 W/m2
20:24 8 °C -2 °C 1016.29 hPa NW 6 km/h 4 km/h 50% 0 mm 14 W/m2
20:29 8 °C -2 °C 1016.39 hPa NW 5 km/h 3 km/h 49% 0 mm 9 W/m2
20:34 8 °C -2 °C 1016.39 hPa NW 5 km/h 2 km/h 49% 0 mm 5 W/m2
20:39 8 °C -2 °C 1016.46 hPa NW 5 km/h 4 km/h 49% 0 mm 0 W/m2
20:44 8 °C -2 °C 1016.53 hPa NW 5 km/h 3 km/h 49% 0 mm 0 W/m2
20:49 8 °C -2 °C 1016.53 hPa NW 3 km/h 2 km/h 49% 0 mm 0 W/m2
20:54 8 °C -2 °C 1016.63 hPa NW 4 km/h 3 km/h 49% 0 mm 0 W/m2
20:59 8 °C -3 °C 1016.63 hPa NW 6 km/h 7 km/h 49% 0 mm 0 W/m2
21:04 7 °C -2 °C 1016.63 hPa NW 8 km/h 6 km/h 49% 0 mm 0 W/m2
21:09 7 °C -2 °C 1016.59 hPa NW 8 km/h 6 km/h 50% 0 mm 0 W/m2
21:14 7 °C -2 °C 1016.7 hPa NW 6 km/h 4 km/h 50% 0 mm 0 W/m2
21:19 7 °C -2 °C 1016.76 hPa NW 5 km/h 4 km/h 51% 0 mm 0 W/m2
21:24 7 °C -2 °C 1016.83 hPa NW 7 km/h 6 km/h 52% 0 mm 0 W/m2
21:29 7 °C -2 °C 1016.86 hPa NW 6 km/h 6 km/h 52% 0 mm 0 W/m2
21:34 7 °C -2 °C 1016.97 hPa NW 3 km/h 2 km/h 54% 0 mm 0 W/m2
21:39 7 °C -2 °C 1017.07 hPa NW 6 km/h 6 km/h 55% 0 mm 0 W/m2
21:44 7 °C -2 °C 1017.07 hPa NNW 6 km/h 5 km/h 55% 0 mm 0 W/m2
21:49 6 °C -2 °C 1017.07 hPa NW 5 km/h 5 km/h 55% 0 mm 0 W/m2
21:54 6 °C -2 °C 1017.07 hPa NW 6 km/h 6 km/h 56% 0 mm 0 W/m2
21:59 6 °C -2 °C 1017.07 hPa NW 7 km/h 7 km/h 56% 0 mm 0 W/m2
22:04 6 °C -1 °C 1017.07 hPa NNW 10 km/h 9 km/h 58% 0 mm 0 W/m2
22:09 6 °C -1 °C 1017.17 hPa NNW 8 km/h 7 km/h 63% 0 mm 0 W/m2
22:14 6 °C 0 °C 1017.27 hPa NNW 7 km/h 6 km/h 64% 0 mm 0 W/m2
22:19 6 °C -1 °C 1017.34 hPa NNW 4 km/h 2 km/h 61% 0 mm 0 W/m2
22:24 6 °C -1 °C 1017.34 hPa NNW 5 km/h 4 km/h 59% 0 mm 0 W/m2
22:29 6 °C -1 °C 1017.34 hPa NNW 6 km/h 5 km/h 59% 0 mm 0 W/m2
22:34 6 °C -1 °C 1017.34 hPa NNW 5 km/h 5 km/h 60% 0 mm 0 W/m2
22:39 6 °C -2 °C 1017.41 hPa NNW 5 km/h 6 km/h 58% 0 mm 0 W/m2
22:44 6 °C -2 °C 1017.41 hPa NNW 6 km/h 6 km/h 57% 0 mm 0 W/m2
22:49 6 °C -2 °C 1017.47 hPa NNW 6 km/h 6 km/h 57% 0 mm 0 W/m2
22:54 6 °C -2 °C 1017.47 hPa NW 6 km/h 5 km/h 56% 0 mm 0 W/m2
22:59 6 °C -2 °C 1017.47 hPa NW 6 km/h 5 km/h 56% 0 mm 0 W/m2
23:04 6 °C -2 °C 1017.47 hPa NW 7 km/h 7 km/h 56% 0 mm 0 W/m2
23:09 6 °C -2 °C 1017.44 hPa NW 8 km/h 8 km/h 56% 0 mm 0 W/m2
23:14 6 °C -2 °C 1017.44 hPa NW 8 km/h 8 km/h 57% 0 mm 0 W/m2
23:19 5 °C -2 °C 1017.51 hPa NW 8 km/h 8 km/h 58% 0 mm 0 W/m2
23:24 5 °C -2 °C 1017.58 hPa NW 8 km/h 7 km/h 57% 0 mm 0 W/m2
23:29 5 °C -3 °C 1017.61 hPa NW 9 km/h 8 km/h 57% 0 mm 0 W/m2
23:34 5 °C -2 °C 1017.58 hPa NNW 10 km/h 10 km/h 57% 0 mm 0 W/m2
23:39 5 °C -2 °C 1017.54 hPa NNW 11 km/h 10 km/h 59% 0 mm 0 W/m2
23:44 5 °C -2 °C 1017.51 hPa NNW 7 km/h 7 km/h 62% 0 mm 0 W/m2
23:49 5 °C -1 °C 1017.54 hPa NNW 6 km/h 5 km/h 65% 0 mm 0 W/m2
23:54 4 °C -1 °C 1017.58 hPa NNW 6 km/h 6 km/h 67% 0 mm 0 W/m2
23:59 4 °C -1 °C 1017.71 hPa NNW 6 km/h 6 km/h 68% 0 mm 0 W/m2
Compliments of Weather Underground - 2 mb